Elizabeth, Indiana
Current Conditions -  °F | °C
As of 6:56 PM on Thursday 27 Nov 2014 (Local Time) from KSDF Reporting Station
Overcast Overcast  
Wind Chill: 23°   Ceiling: 2700
Heat Index: 30°   Visibility: 10mi
Dew Point: 21°   Wind: 7mph
Humidity: 69%   Direction: 270°W
Pressure: 30.43"   Gusts: NA
Location:  38.12°N, 85.97°W
Report Text: KSDF 272356Z 27006KT 10SM OVC027 M01/M06 A3043 RMK AO2 SLP310 T10111061 10017 21011 51018
Loading
Personal Weather Stations






























Interactive Weather Map New forecast layout! Learn more

10-Day Weather Forecast

Advertisements
Track Severe Weather on mobile